sensor_id;sensor_type;location;lat;lon;timestamp;temperature;humidity
45137;DHT22;30894;51.740;19.498;2022-08-04T00:02:09;15.70;80.20
45137;DHT22;30894;51.740;19.498;2022-08-04T00:04:41;15.70;80.30
45137;DHT22;30894;51.740;19.498;2022-08-04T00:10:10;15.60;80.40
45137;DHT22;30894;51.740;19.498;2022-08-04T00:12:41;15.70;80.30
45137;DHT22;30894;51.740;19.498;2022-08-04T00:15:11;15.60;80.30
45137;DHT22;30894;51.740;19.498;2022-08-04T00:17:44;15.70;80.40
45137;DHT22;30894;51.740;19.498;2022-08-04T00:20:18;15.70;80.50
45137;DHT22;30894;51.740;19.498;2022-08-04T00:22:46;15.70;80.50
45137;DHT22;30894;51.740;19.498;2022-08-04T00:25:13;15.70;80.50
45137;DHT22;30894;51.740;19.498;2022-08-04T00:27:39;15.60;80.60
45137;DHT22;30894;51.740;19.498;2022-08-04T00:30:06;15.60;80.80
45137;DHT22;30894;51.740;19.498;2022-08-04T00:32:33;15.60;81.50
45137;DHT22;30894;51.740;19.498;2022-08-04T00:35:00;15.50;80.90
45137;DHT22;30894;51.740;19.498;2022-08-04T00:37:26;15.50;81.10
45137;DHT22;30894;51.740;19.498;2022-08-04T00:39:54;15.50;81.20
45137;DHT22;30894;51.740;19.498;2022-08-04T00:48:12;15.40;81.50
45137;DHT22;30894;51.740;19.498;2022-08-04T00:54:15;15.40;81.60
45137;DHT22;30894;51.740;19.498;2022-08-04T01:00:09;15.40;81.60
45137;DHT22;30894;51.740;19.498;2022-08-04T01:11:12;15.40;81.70
45137;DHT22;30894;51.740;19.498;2022-08-04T01:14:27;15.40;81.80
45137;DHT22;30894;51.740;19.498;2022-08-04T01:17:27;15.40;81.80
45137;DHT22;30894;51.740;19.498;2022-08-04T01:28:28;15.40;82.00
45137;DHT22;30894;51.740;19.498;2022-08-04T01:31:06;15.40;82.20
45137;DHT22;30894;51.740;19.498;2022-08-04T01:33:43;15.30;82.20
45137;DHT22;30894;51.740;19.498;2022-08-04T01:36:11;15.30;82.30
45137;DHT22;30894;51.740;19.498;2022-08-04T01:38:41;15.30;82.30
45137;DHT22;30894;51.740;19.498;2022-08-04T01:41:12;15.30;82.50
45137;DHT22;30894;51.740;19.498;2022-08-04T01:43:42;15.20;82.50
45137;DHT22;30894;51.740;19.498;2022-08-04T01:46:11;15.30;82.60
45137;DHT22;30894;51.740;19.498;2022-08-04T01:48:40;15.30;82.70
45137;DHT22;30894;51.740;19.498;2022-08-04T01:51:08;15.20;82.70
45137;DHT22;30894;51.740;19.498;2022-08-04T01:53:38;15.30;82.80
45137;DHT22;30894;51.740;19.498;2022-08-04T01:56:08;15.30;82.80
45137;DHT22;30894;51.740;19.498;2022-08-04T01:58:36;15.20;82.80
45137;DHT22;30894;51.740;19.498;2022-08-04T02:01:03;15.30;83.00
45137;DHT22;30894;51.740;19.498;2022-08-04T02:03:39;15.20;82.90
45137;DHT22;30894;51.740;19.498;2022-08-04T02:06:17;15.20;83.10
45137;DHT22;30894;51.740;19.498;2022-08-04T02:09:21;15.20;83.20
45137;DHT22;30894;51.740;19.498;2022-08-04T02:12:24;15.20;83.30
45137;DHT22;30894;51.740;19.498;2022-08-04T02:20:47;15.10;83.50
45137;DHT22;30894;51.740;19.498;2022-08-04T02:23:18;15.10;83.60
45137;DHT22;30894;51.740;19.498;2022-08-04T02:26:03;15.10;83.70
45137;DHT22;30894;51.740;19.498;2022-08-04T02:31:47;15.10;84.00
45137;DHT22;30894;51.740;19.498;2022-08-04T02:34:36;15.10;84.00
45137;DHT22;30894;51.740;19.498;2022-08-04T02:37:08;15.10;84.00
45137;DHT22;30894;51.740;19.498;2022-08-04T02:39:36;15.10;84.00
45137;DHT22;30894;51.740;19.498;2022-08-04T02:42:03;15.10;83.90
45137;DHT22;30894;51.740;19.498;2022-08-04T02:44:30;15.10;83.90
45137;DHT22;30894;51.740;19.498;2022-08-04T02:46:59;15.20;83.80
45137;DHT22;30894;51.740;19.498;2022-08-04T02:49:26;15.20;83.80
45137;DHT22;30894;51.740;19.498;2022-08-04T02:51:54;15.20;83.70
45137;DHT22;30894;51.740;19.498;2022-08-04T02:54:24;15.20;83.70
45137;DHT22;30894;51.740;19.498;2022-08-04T02:56:54;15.20;83.60
45137;DHT22;30894;51.740;19.498;2022-08-04T02:59:25;15.20;83.70
45137;DHT22;30894;51.740;19.498;2022-08-04T03:01:56;15.20;83.70
45137;DHT22;30894;51.740;19.498;2022-08-04T03:04:48;15.20;83.80
45137;DHT22;30894;51.740;19.498;2022-08-04T03:16:54;15.20;84.10
45137;DHT22;30894;51.740;19.498;2022-08-04T03:23:28;15.20;84.30
45137;DHT22;30894;51.740;19.498;2022-08-04T03:52:14;15.40;84.40
45137;DHT22;30894;51.740;19.498;2022-08-04T03:57:52;15.40;84.50
45137;DHT22;30894;51.740;19.498;2022-08-04T04:03:34;15.50;84.60
45137;DHT22;30894;51.740;19.498;2022-08-04T04:12:34;15.60;84.60
45137;DHT22;30894;51.740;19.498;2022-08-04T04:15:27;15.60;84.70
45137;DHT22;30894;51.740;19.498;2022-08-04T04:26:48;15.90;84.70
45137;DHT22;30894;51.740;19.498;2022-08-04T04:29:43;16.00;84.50
45137;DHT22;30894;51.740;19.498;2022-08-04T04:32:52;16.20;84.20
45137;DHT22;30894;51.740;19.498;2022-08-04T04:36:16;16.40;83.60
45137;DHT22;30894;51.740;19.498;2022-08-04T04:39:57;16.80;82.90
45137;DHT22;30894;51.740;19.498;2022-08-04T04:48:37;18.10;80.50
45137;DHT22;30894;51.740;19.498;2022-08-04T04:51:41;18.40;79.90
45137;DHT22;30894;51.740;19.498;2022-08-04T04:54:16;18.70;79.50
45137;DHT22;30894;51.740;19.498;2022-08-04T04:57:15;18.90;79.20
45137;DHT22;30894;51.740;19.498;2022-08-04T05:00:02;19.10;79.00
45137;DHT22;30894;51.740;19.498;2022-08-04T05:05:44;19.60;78.70
45137;DHT22;30894;51.740;19.498;2022-08-04T05:08:31;19.80;78.40
45137;DHT22;30894;51.740;19.498;2022-08-04T05:14:13;20.30;78.00
45137;DHT22;30894;51.740;19.498;2022-08-04T05:16:59;20.50;77.80
45137;DHT22;30894;51.740;19.498;2022-08-04T05:22:42;21.00;77.60
45137;DHT22;30894;51.740;19.498;2022-08-04T05:28:24;21.50;77.20
45137;DHT22;30894;51.740;19.498;2022-08-04T05:31:05;21.80;77.00
45137;DHT22;30894;51.740;19.498;2022-08-04T05:33:42;22.10;76.60
45137;DHT22;30894;51.740;19.498;2022-08-04T05:36:17;22.50;76.30
45137;DHT22;30894;51.740;19.498;2022-08-04T05:38:45;22.90;75.70
45137;DHT22;30894;51.740;19.498;2022-08-04T05:41:14;23.20;75.10
45137;DHT22;30894;51.740;19.498;2022-08-04T05:43:42;23.60;75.20
45137;DHT22;30894;51.740;19.498;2022-08-04T05:46:10;24.00;74.10
45137;DHT22;30894;51.740;19.498;2022-08-04T05:48:37;24.50;73.30
45137;DHT22;30894;51.740;19.498;2022-08-04T05:51:08;25.00;72.50
45137;DHT22;30894;51.740;19.498;2022-08-04T05:53:35;25.50;71.80
45137;DHT22;30894;51.740;19.498;2022-08-04T05:56:04;26.00;71.00
45137;DHT22;30894;51.740;19.498;2022-08-04T05:58:32;26.50;70.30
45137;DHT22;30894;51.740;19.498;2022-08-04T06:01:00;27.10;69.60
45137;DHT22;30894;51.740;19.498;2022-08-04T06:03:31;27.50;69.00
45137;DHT22;30894;51.740;19.498;2022-08-04T06:05:59;28.00;68.60
45137;DHT22;30894;51.740;19.498;2022-08-04T06:08:26;28.50;67.80
45137;DHT22;30894;51.740;19.498;2022-08-04T06:10:53;29.20;67.10
45137;DHT22;30894;51.740;19.498;2022-08-04T06:13:28;29.60;66.50
45137;DHT22;30894;51.740;19.498;2022-08-04T06:15:56;30.00;66.30
45137;DHT22;30894;51.740;19.498;2022-08-04T06:18:23;30.30;65.80
45137;DHT22;30894;51.740;19.498;2022-08-04T06:20:51;30.70;65.70
45137;DHT22;30894;51.740;19.498;2022-08-04T06:23:20;31.20;65.20
45137;DHT22;30894;51.740;19.498;2022-08-04T06:25:50;31.80;64.70
45137;DHT22;30894;51.740;19.498;2022-08-04T06:28:18;32.00;64.30
45137;DHT22;30894;51.740;19.498;2022-08-04T06:30:46;32.20;64.20
45137;DHT22;30894;51.740;19.498;2022-08-04T06:33:15;32.50;64.10
45137;DHT22;30894;51.740;19.498;2022-08-04T06:36:03;32.70;64.00
45137;DHT22;30894;51.740;19.498;2022-08-04T06:38:31;32.90;64.00
45137;DHT22;30894;51.740;19.498;2022-08-04T06:41:01;33.30;63.70
45137;DHT22;30894;51.740;19.498;2022-08-04T06:43:28;33.60;63.40
45137;DHT22;30894;51.740;19.498;2022-08-04T06:45:58;34.20;63.00
45137;DHT22;30894;51.740;19.498;2022-08-04T06:48:27;34.50;62.50
45137;DHT22;30894;51.740;19.498;2022-08-04T06:50:54;34.80;62.30
45137;DHT22;30894;51.740;19.498;2022-08-04T06:53:21;35.00;62.00
45137;DHT22;30894;51.740;19.498;2022-08-04T06:55:48;35.40;61.80
45137;DHT22;30894;51.740;19.498;2022-08-04T06:58:15;35.50;61.50
45137;DHT22;30894;51.740;19.498;2022-08-04T07:00:43;35.70;61.50
45137;DHT22;30894;51.740;19.498;2022-08-04T07:03:13;35.90;61.30
45137;DHT22;30894;51.740;19.498;2022-08-04T07:05:40;36.30;61.10
45137;DHT22;30894;51.740;19.498;2022-08-04T07:08:11;36.30;60.80
45137;DHT22;30894;51.740;19.498;2022-08-04T07:10:38;36.40;61.00
45137;DHT22;30894;51.740;19.498;2022-08-04T07:13:05;36.50;61.10
45137;DHT22;30894;51.740;19.498;2022-08-04T07:15:32;36.70;60.80
45137;DHT22;30894;51.740;19.498;2022-08-04T07:17:58;36.90;60.70
45137;DHT22;30894;51.740;19.498;2022-08-04T07:20:29;36.90;60.60
45137;DHT22;30894;51.740;19.498;2022-08-04T07:22:56;37.00;60.50
45137;DHT22;30894;51.740;19.498;2022-08-04T07:25:22;37.20;60.50
45137;DHT22;30894;51.740;19.498;2022-08-04T07:27:48;37.30;60.30
45137;DHT22;30894;51.740;19.498;2022-08-04T07:30:14;37.30;60.20
45137;DHT22;30894;51.740;19.498;2022-08-04T07:32:42;37.30;60.20
45137;DHT22;30894;51.740;19.498;2022-08-04T07:35:12;37.50;60.30
45137;DHT22;30894;51.740;19.498;2022-08-04T07:37:38;37.70;60.20
45137;DHT22;30894;51.740;19.498;2022-08-04T07:40:05;37.90;59.80
45137;DHT22;30894;51.740;19.498;2022-08-04T07:42:31;38.10;59.70
45137;DHT22;30894;51.740;19.498;2022-08-04T07:44:58;38.20;59.40
45137;DHT22;30894;51.740;19.498;2022-08-04T07:47:24;38.60;59.20
45137;DHT22;30894;51.740;19.498;2022-08-04T07:49:52;39.00;58.80
45137;DHT22;30894;51.740;19.498;2022-08-04T07:52:19;39.20;58.50
45137;DHT22;30894;51.740;19.498;2022-08-04T07:54:49;39.10;58.40
45137;DHT22;30894;51.740;19.498;2022-08-04T07:57:17;39.10;58.40
45137;DHT22;30894;51.740;19.498;2022-08-04T07:59:46;39.20;58.20
45137;DHT22;30894;51.740;19.498;2022-08-04T08:02:18;39.30;58.10
45137;DHT22;30894;51.740;19.498;2022-08-04T08:04:46;39.50;57.90
45137;DHT22;30894;51.740;19.498;2022-08-04T08:07:12;39.90;57.70
45137;DHT22;30894;51.740;19.498;2022-08-04T08:09:39;40.00;57.30
45137;DHT22;30894;51.740;19.498;2022-08-04T08:12:06;40.20;57.20
45137;DHT22;30894;51.740;19.498;2022-08-04T08:14:34;40.20;57.00
45137;DHT22;30894;51.740;19.498;2022-08-04T08:17:00;40.50;56.80
45137;DHT22;30894;51.740;19.498;2022-08-04T08:19:32;40.70;56.50
45137;DHT22;30894;51.740;19.498;2022-08-04T08:21:59;41.00;56.30
45137;DHT22;30894;51.740;19.498;2022-08-04T08:24:31;41.10;56.00
45137;DHT22;30894;51.740;19.498;2022-08-04T08:27:01;41.30;56.40
45137;DHT22;30894;51.740;19.498;2022-08-04T08:29:33;41.50;55.70
45137;DHT22;30894;51.740;19.498;2022-08-04T08:32:01;41.50;55.40
45137;DHT22;30894;51.740;19.498;2022-08-04T08:34:28;41.40;55.40
45137;DHT22;30894;51.740;19.498;2022-08-04T08:37:29;41.30;55.30
45137;DHT22;30894;51.740;19.498;2022-08-04T08:55:11;42.00;54.30
45137;DHT22;30894;51.740;19.498;2022-08-04T09:01:06;42.60;53.60
45137;DHT22;30894;51.740;19.498;2022-08-04T09:06:40;42.50;53.30
45137;DHT22;30894;51.740;19.498;2022-08-04T09:09:16;42.60;53.40
45137;DHT22;30894;51.740;19.498;2022-08-04T09:12:32;42.20;53.70
45137;DHT22;30894;51.740;19.498;2022-08-04T09:15:04;42.00;53.90
45137;DHT22;30894;51.740;19.498;2022-08-04T09:18:04;41.80;53.90
45137;DHT22;30894;51.740;19.498;2022-08-04T09:20:39;42.10;53.80
45137;DHT22;30894;51.740;19.498;2022-08-04T09:23:23;42.80;53.10
45137;DHT22;30894;51.740;19.498;2022-08-04T09:29:16;43.30;52.30
45137;DHT22;30894;51.740;19.498;2022-08-04T09:32:00;43.70;52.00
45137;DHT22;30894;51.740;19.498;2022-08-04T09:34:46;44.30;51.40
45137;DHT22;30894;51.740;19.498;2022-08-04T09:37:35;44.70;51.00
45137;DHT22;30894;51.740;19.498;2022-08-04T09:43:18;44.30;51.00
45137;DHT22;30894;51.740;19.498;2022-08-04T09:46:04;44.40;51.10
45137;DHT22;30894;51.740;19.498;2022-08-04T09:48:54;43.80;51.30
45137;DHT22;30894;51.740;19.498;2022-08-04T10:03:11;44.50;50.40
45137;DHT22;30894;51.740;19.498;2022-08-04T10:11:08;44.40;50.20
45137;DHT22;30894;51.740;19.498;2022-08-04T10:13:51;44.40;50.10
45137;DHT22;30894;51.740;19.498;2022-08-04T10:17:01;44.30;50.10
45137;DHT22;30894;51.740;19.498;2022-08-04T10:19:39;44.30;50.10
45137;DHT22;30894;51.740;19.498;2022-08-04T10:22:30;44.40;49.90
45137;DHT22;30894;51.740;19.498;2022-08-04T10:28:17;44.30;49.70
45137;DHT22;30894;51.740;19.498;2022-08-04T10:30:55;44.30;49.60
45137;DHT22;30894;51.740;19.498;2022-08-04T10:33:56;44.90;49.30
45137;DHT22;30894;51.740;19.498;2022-08-04T10:36:29;44.90;49.10
45137;DHT22;30894;51.740;19.498;2022-08-04T10:39:06;44.70;49.10
45137;DHT22;30894;51.740;19.498;2022-08-04T10:45:16;44.60;49.00
45137;DHT22;30894;51.740;19.498;2022-08-04T10:47:55;44.20;49.20
45137;DHT22;30894;51.740;19.498;2022-08-04T10:50:26;44.10;49.30
45137;DHT22;30894;51.740;19.498;2022-08-04T10:53:11;44.10;49.00
45137;DHT22;30894;51.740;19.498;2022-08-04T10:55:49;44.30;48.90
45137;DHT22;30894;51.740;19.498;2022-08-04T10:58:22;44.00;48.90
45137;DHT22;30894;51.740;19.498;2022-08-04T11:00:55;44.10;48.90
45137;DHT22;30894;51.740;19.498;2022-08-04T11:03:28;44.30;48.70
45137;DHT22;30894;51.740;19.498;2022-08-04T11:05:58;44.60;48.50
45137;DHT22;30894;51.740;19.498;2022-08-04T11:08:35;45.00;48.20
45137;DHT22;30894;51.740;19.498;2022-08-04T11:11:14;45.10;48.00
45137;DHT22;30894;51.740;19.498;2022-08-04T11:13:46;44.80;47.90
45137;DHT22;30894;51.740;19.498;2022-08-04T11:16:35;44.70;48.10
45137;DHT22;30894;51.740;19.498;2022-08-04T11:22:26;45.30;47.80
45137;DHT22;30894;51.740;19.498;2022-08-04T11:25:12;45.20;47.60
45137;DHT22;30894;51.740;19.498;2022-08-04T11:31:07;45.00;47.70
45137;DHT22;30894;51.740;19.498;2022-08-04T11:39:47;44.90;47.20
45137;DHT22;30894;51.740;19.498;2022-08-04T11:42:22;44.80;47.20
45137;DHT22;30894;51.740;19.498;2022-08-04T11:45:03;44.70;47.30
45137;DHT22;30894;51.740;19.498;2022-08-04T11:47:56;44.90;47.30
45137;DHT22;30894;51.740;19.498;2022-08-04T11:50:38;45.30;46.90
45137;DHT22;30894;51.740;19.498;2022-08-04T11:53:15;45.10;46.80
45137;DHT22;30894;51.740;19.498;2022-08-04T11:55:49;44.70;47.60
45137;DHT22;30894;51.740;19.498;2022-08-04T11:58:17;44.90;46.90
45137;DHT22;30894;51.740;19.498;2022-08-04T12:04:34;45.00;46.60
45137;DHT22;30894;51.740;19.498;2022-08-04T12:13:44;45.30;46.50
45137;DHT22;30894;51.740;19.498;2022-08-04T12:15:56;45.30;46.30
45137;DHT22;30894;51.740;19.498;2022-08-04T12:18:32;45.10;46.30
45137;DHT22;30894;51.740;19.498;2022-08-04T12:21:22;44.90;46.40
45137;DHT22;30894;51.740;19.498;2022-08-04T12:24:13;44.70;46.50
45137;DHT22;30894;51.740;19.498;2022-08-04T12:26:51;44.60;46.70
45137;DHT22;30894;51.740;19.498;2022-08-04T12:29:19;44.60;46.60
45137;DHT22;30894;51.740;19.498;2022-08-04T12:31:51;44.90;46.40
45137;DHT22;30894;51.740;19.498;2022-08-04T12:34:32;45.00;46.10
45137;DHT22;30894;51.740;19.498;2022-08-04T12:38:10;45.10;46.00
45137;DHT22;30894;51.740;19.498;2022-08-04T12:40:24;45.40;45.90
45137;DHT22;30894;51.740;19.498;2022-08-04T12:45:59;44.80;45.80
45137;DHT22;30894;51.740;19.498;2022-08-04T12:48:31;44.60;45.90
45137;DHT22;30894;51.740;19.498;2022-08-04T12:50:58;44.40;45.90
45137;DHT22;30894;51.740;19.498;2022-08-04T12:53:33;44.20;46.00
45137;DHT22;30894;51.740;19.498;2022-08-04T12:56:04;44.20;46.00
45137;DHT22;30894;51.740;19.498;2022-08-04T12:58:37;44.60;45.80
45137;DHT22;30894;51.740;19.498;2022-08-04T13:01:10;44.70;45.50
45137;DHT22;30894;51.740;19.498;2022-08-04T13:03:49;44.60;45.30
45137;DHT22;30894;51.740;19.498;2022-08-04T13:06:24;44.50;45.40
45137;DHT22;30894;51.740;19.498;2022-08-04T13:08:53;44.30;45.40
45137;DHT22;30894;51.740;19.498;2022-08-04T13:11:22;44.30;45.60
45137;DHT22;30894;51.740;19.498;2022-08-04T13:13:54;44.30;45.40
45137;DHT22;30894;51.740;19.498;2022-08-04T13:16:30;44.30;45.40
45137;DHT22;30894;51.740;19.498;2022-08-04T13:18:59;44.20;45.40
45137;DHT22;30894;51.740;19.498;2022-08-04T13:21:28;44.10;45.30
45137;DHT22;30894;51.740;19.498;2022-08-04T13:24:01;44.30;45.30
45137;DHT22;30894;51.740;19.498;2022-08-04T13:26:29;44.20;45.20
45137;DHT22;30894;51.740;19.498;2022-08-04T13:29:05;44.00;45.20
45137;DHT22;30894;51.740;19.498;2022-08-04T13:31:35;43.90;45.10
45137;DHT22;30894;51.740;19.498;2022-08-04T13:34:05;43.70;45.20
45137;DHT22;30894;51.740;19.498;2022-08-04T13:36:36;43.80;45.20
45137;DHT22;30894;51.740;19.498;2022-08-04T13:39:14;44.10;45.20
45137;DHT22;30894;51.740;19.498;2022-08-04T13:41:45;44.20;45.00
45137;DHT22;30894;51.740;19.498;2022-08-04T13:44:20;43.90;45.00
45137;DHT22;30894;51.740;19.498;2022-08-04T13:47:27;43.60;44.90
45137;DHT22;30894;51.740;19.498;2022-08-04T13:50:32;43.40;45.10
45137;DHT22;30894;51.740;19.498;2022-08-04T13:53:00;43.30;45.20
45137;DHT22;30894;51.740;19.498;2022-08-04T13:55:30;43.10;45.30
45137;DHT22;30894;51.740;19.498;2022-08-04T13:58:08;43.20;45.40
45137;DHT22;30894;51.740;19.498;2022-08-04T14:00:58;43.30;45.20
45137;DHT22;30894;51.740;19.498;2022-08-04T14:06:13;43.10;45.20
45137;DHT22;30894;51.740;19.498;2022-08-04T14:08:58;42.90;45.30
45137;DHT22;30894;51.740;19.498;2022-08-04T14:11:49;42.60;45.40
45137;DHT22;30894;51.740;19.498;2022-08-04T14:14:29;42.60;45.40
45137;DHT22;30894;51.740;19.498;2022-08-04T14:17:23;42.50;45.40
45137;DHT22;30894;51.740;19.498;2022-08-04T14:19:56;42.40;45.30
45137;DHT22;30894;51.740;19.498;2022-08-04T14:27:48;42.50;45.30
45137;DHT22;30894;51.740;19.498;2022-08-04T14:33:10;42.20;45.30
45137;DHT22;30894;51.740;19.498;2022-08-04T14:35:38;41.90;45.60
45137;DHT22;30894;51.740;19.498;2022-08-04T14:38:09;41.70;45.70
45137;DHT22;30894;51.740;19.498;2022-08-04T14:40:41;41.50;45.80
45137;DHT22;30894;51.740;19.498;2022-08-04T14:43:08;41.30;45.90
45137;DHT22;30894;51.740;19.498;2022-08-04T14:45:37;41.20;46.00
45137;DHT22;30894;51.740;19.498;2022-08-04T14:48:12;41.20;46.00
45137;DHT22;30894;51.740;19.498;2022-08-04T14:50:40;41.40;45.80
45137;DHT22;30894;51.740;19.498;2022-08-04T14:53:16;41.50;45.70
45137;DHT22;30894;51.740;19.498;2022-08-04T14:55:53;41.50;45.70
45137;DHT22;30894;51.740;19.498;2022-08-04T14:58:29;41.30;45.70
45137;DHT22;30894;51.740;19.498;2022-08-04T15:01:03;41.00;45.60
45137;DHT22;30894;51.740;19.498;2022-08-04T15:03:31;40.80;46.00
45137;DHT22;30894;51.740;19.498;2022-08-04T15:05:59;40.80;46.10
45137;DHT22;30894;51.740;19.498;2022-08-04T15:08:29;41.00;46.00
45137;DHT22;30894;51.740;19.498;2022-08-04T15:10:57;41.00;45.80
45137;DHT22;30894;51.740;19.498;2022-08-04T15:13:25;40.90;45.80
45137;DHT22;30894;51.740;19.498;2022-08-04T15:15:51;40.90;45.90
45137;DHT22;30894;51.740;19.498;2022-08-04T15:18:19;40.70;46.00
45137;DHT22;30894;51.740;19.498;2022-08-04T15:20:46;40.40;46.10
45137;DHT22;30894;51.740;19.498;2022-08-04T15:23:13;40.00;46.40
45137;DHT22;30894;51.740;19.498;2022-08-04T15:25:53;39.70;46.60
45137;DHT22;30894;51.740;19.498;2022-08-04T15:28:24;39.50;46.80
45137;DHT22;30894;51.740;19.498;2022-08-04T15:30:55;39.30;46.80
45137;DHT22;30894;51.740;19.498;2022-08-04T15:33:24;39.10;47.10
45137;DHT22;30894;51.740;19.498;2022-08-04T15:35:57;39.00;47.20
45137;DHT22;30894;51.740;19.498;2022-08-04T15:38:43;39.00;47.10
45137;DHT22;30894;51.740;19.498;2022-08-04T15:41:25;38.80;47.00
45137;DHT22;30894;51.740;19.498;2022-08-04T15:44:22;38.60;47.20
45137;DHT22;30894;51.740;19.498;2022-08-04T15:47:13;38.50;47.20
45137;DHT22;30894;51.740;19.498;2022-08-04T15:49:42;38.50;47.30
45137;DHT22;30894;51.740;19.498;2022-08-04T15:52:13;38.30;47.30
45137;DHT22;30894;51.740;19.498;2022-08-04T15:54:41;38.20;47.40
45137;DHT22;30894;51.740;19.498;2022-08-04T15:57:09;38.10;47.50
45137;DHT22;30894;51.740;19.498;2022-08-04T16:00:01;38.10;47.50
45137;DHT22;30894;51.740;19.498;2022-08-04T16:08:00;37.80;47.60
45137;DHT22;30894;51.740;19.498;2022-08-04T16:10:36;37.40;47.80
45137;DHT22;30894;51.740;19.498;2022-08-04T16:13:11;37.10;48.10
45137;DHT22;30894;51.740;19.498;2022-08-04T16:15:51;36.80;48.40
45137;DHT22;30894;51.740;19.498;2022-08-04T16:20:56;36.40;48.70
45137;DHT22;30894;51.740;19.498;2022-08-04T16:32:12;35.90;49.00
45137;DHT22;30894;51.740;19.498;2022-08-04T16:34:46;35.80;49.20
45137;DHT22;30894;51.740;19.498;2022-08-04T16:37:34;35.70;49.20
45137;DHT22;30894;51.740;19.498;2022-08-04T16:40:32;35.50;49.40
45137;DHT22;30894;51.740;19.498;2022-08-04T16:45:42;35.00;49.60
45137;DHT22;30894;51.740;19.498;2022-08-04T16:48:09;34.70;49.80
45137;DHT22;30894;51.740;19.498;2022-08-04T16:50:59;34.40;50.10
45137;DHT22;30894;51.740;19.498;2022-08-04T16:56:02;33.50;50.90
45137;DHT22;30894;51.740;19.498;2022-08-04T16:58:32;33.10;51.20
45137;DHT22;30894;51.740;19.498;2022-08-04T17:01:11;32.80;51.50
45137;DHT22;30894;51.740;19.498;2022-08-04T17:03:51;32.30;51.90
45137;DHT22;30894;51.740;19.498;2022-08-04T17:06:18;31.70;52.40
45137;DHT22;30894;51.740;19.498;2022-08-04T17:08:44;31.20;52.80
45137;DHT22;30894;51.740;19.498;2022-08-04T17:11:11;30.80;53.10
45137;DHT22;30894;51.740;19.498;2022-08-04T17:13:40;30.50;53.40
45137;DHT22;30894;51.740;19.498;2022-08-04T17:16:09;30.20;53.60
45137;DHT22;30894;51.740;19.498;2022-08-04T17:18:38;29.90;53.80
45137;DHT22;30894;51.740;19.498;2022-08-04T17:21:09;29.70;53.90
45137;DHT22;30894;51.740;19.498;2022-08-04T17:23:40;29.50;54.00
45137;DHT22;30894;51.740;19.498;2022-08-04T17:26:18;29.30;54.10
45137;DHT22;30894;51.740;19.498;2022-08-04T17:28:48;29.10;54.20
45137;DHT22;30894;51.740;19.498;2022-08-04T17:31:17;29.00;54.40
45137;DHT22;30894;51.740;19.498;2022-08-04T17:33:48;28.80;54.50
45137;DHT22;30894;51.740;19.498;2022-08-04T17:36:17;28.60;54.60
45137;DHT22;30894;51.740;19.498;2022-08-04T17:38:49;28.40;54.70
45137;DHT22;30894;51.740;19.498;2022-08-04T17:41:20;28.20;54.80
45137;DHT22;30894;51.740;19.498;2022-08-04T17:43:49;28.10;54.90
45137;DHT22;30894;51.740;19.498;2022-08-04T17:49:21;27.70;55.20
45137;DHT22;30894;51.740;19.498;2022-08-04T17:51:53;27.50;55.40
45137;DHT22;30894;51.740;19.498;2022-08-04T17:54:32;27.30;55.60
45137;DHT22;30894;51.740;19.498;2022-08-04T17:57:01;27.10;55.70
45137;DHT22;30894;51.740;19.498;2022-08-04T18:02:05;26.70;56.10
45137;DHT22;30894;51.740;19.498;2022-08-04T18:04:49;26.60;56.30
45137;DHT22;30894;51.740;19.498;2022-08-04T18:07:20;26.40;56.40
45137;DHT22;30894;51.740;19.498;2022-08-04T18:09:52;26.30;56.60
45137;DHT22;30894;51.740;19.498;2022-08-04T18:12:28;26.10;56.70
45137;DHT22;30894;51.740;19.498;2022-08-04T18:15:04;25.90;56.80
45137;DHT22;30894;51.740;19.498;2022-08-04T18:17:35;25.80;57.00
45137;DHT22;30894;51.740;19.498;2022-08-04T18:20:10;25.70;57.20
45137;DHT22;30894;51.740;19.498;2022-08-04T18:22:44;25.50;57.40
45137;DHT22;30894;51.740;19.498;2022-08-04T18:25:14;25.30;57.50
45137;DHT22;30894;51.740;19.498;2022-08-04T18:27:52;25.10;57.60
45137;DHT22;30894;51.740;19.498;2022-08-04T18:30:24;25.00;57.90
45137;DHT22;30894;51.740;19.498;2022-08-04T18:32:51;24.80;58.50
45137;DHT22;30894;51.740;19.498;2022-08-04T18:35:21;24.60;58.30
45137;DHT22;30894;51.740;19.498;2022-08-04T18:37:47;24.50;58.40
45137;DHT22;30894;51.740;19.498;2022-08-04T18:40:15;24.40;58.60
45137;DHT22;30894;51.740;19.498;2022-08-04T18:42:42;24.30;58.70
45137;DHT22;30894;51.740;19.498;2022-08-04T18:45:08;24.10;58.80
45137;DHT22;30894;51.740;19.498;2022-08-04T18:47:35;24.10;58.90
45137;DHT22;30894;51.740;19.498;2022-08-04T18:50:01;24.00;59.10
45137;DHT22;30894;51.740;19.498;2022-08-04T18:52:28;23.80;59.10
45137;DHT22;30894;51.740;19.498;2022-08-04T18:54:54;23.70;59.30
45137;DHT22;30894;51.740;19.498;2022-08-04T18:57:23;23.60;59.30
45137;DHT22;30894;51.740;19.498;2022-08-04T18:59:51;23.60;59.40
45137;DHT22;30894;51.740;19.498;2022-08-04T19:02:17;23.50;59.60
45137;DHT22;30894;51.740;19.498;2022-08-04T19:04:46;23.30;59.70
45137;DHT22;30894;51.740;19.498;2022-08-04T19:07:14;23.20;59.90
45137;DHT22;30894;51.740;19.498;2022-08-04T19:09:41;23.10;60.00
45137;DHT22;30894;51.740;19.498;2022-08-04T19:12:09;23.10;60.10
45137;DHT22;30894;51.740;19.498;2022-08-04T19:14:35;23.00;60.30
45137;DHT22;30894;51.740;19.498;2022-08-04T19:17:02;22.90;60.30
45137;DHT22;30894;51.740;19.498;2022-08-04T19:19:28;22.90;60.30
45137;DHT22;30894;51.740;19.498;2022-08-04T19:21:54;22.90;60.40
45137;DHT22;30894;51.740;19.498;2022-08-04T19:24:22;22.80;60.60
45137;DHT22;30894;51.740;19.498;2022-08-04T19:26:48;22.80;60.60
45137;DHT22;30894;51.740;19.498;2022-08-04T19:29:16;22.70;60.60
45137;DHT22;30894;51.740;19.498;2022-08-04T19:31:43;22.70;60.70
45137;DHT22;30894;51.740;19.498;2022-08-04T19:34:10;22.60;60.70
45137;DHT22;30894;51.740;19.498;2022-08-04T19:36:38;22.50;60.80
45137;DHT22;30894;51.740;19.498;2022-08-04T19:39:09;22.50;60.90
45137;DHT22;30894;51.740;19.498;2022-08-04T19:41:38;22.50;61.00
45137;DHT22;30894;51.740;19.498;2022-08-04T19:44:05;22.40;61.10
45137;DHT22;30894;51.740;19.498;2022-08-04T19:46:32;22.30;61.10
45137;DHT22;30894;51.740;19.498;2022-08-04T19:48:58;22.30;61.10
45137;DHT22;30894;51.740;19.498;2022-08-04T19:51:25;22.30;61.30
45137;DHT22;30894;51.740;19.498;2022-08-04T19:53:52;22.20;61.30
45137;DHT22;30894;51.740;19.498;2022-08-04T19:56:21;22.10;61.40